Terminal Aerodrome Forecast
Issued by NWS Caribou, ME

Home | Current Version | Previous Version | Text Only | Print | Product List | Glossary On
Versions: 1 2 3 4 5 6 7 8 9 10 11 12 13
000
FTUS41 KCAR 251120
TAFBGR
TAF
KBGR 251120Z 2512/2612 00000KT P6SM BKN150
     FM251500 18006KT P6SM SCT060
     FM252200 18006KT P6SM BKN050
     FM260000 18005KT P6SM VCSH OVC030
     FM260500 19003KT 2SM -SHRA BR OVC008=

USA.gov is the U.S. government's official web portal to all federal, state and local government web resources and services.